Sandy Fork, Texas
Current Conditions -  °F | °C
As of 5:15 AM on Tuesday 21 Oct 2014 (Local Time) from KT20 Reporting Station
Clear Clear  
Wind Chill: 61°   Ceiling: Unl
Heat Index: 61°   Visibility: 7mi
Dew Point: 59°   Wind: 3mph
Humidity: 94%   Direction: 40°NE
Pressure: 30.01"   Gusts: NA
Location:  29.6608°N, 97.4854°W
Report Text: KT20 211015Z AUTO 04003KT 7SM CLR 16/15 A3001 RMK AO2 T01610151
Loading
Personal Weather Stations






























Interactive Weather Map
Tropical Storm Tracking
New forecast layout! Learn more

10-Day Weather Forecast

Advertisements
Track Severe Weather on mobile